»·PEaware :: CGGPO KBUR-KLAS

CGGPO :: KBUR-KLAS

FLIGHT INFORMATION

Flight Status: Arrived
Operator: Unknown
More flights by this operator :: More flights under this callsign
Pilot: Andrew S. (24594)
Aircraft: CIRRUS VISIONJET
(SF50)
More flights by this aircraft type
Origin: KBUR Bob Hope-Burbank
United States
Destination: KLAS McCarran Intl
United States
More flights between these airports :: More routes between these airports
Route: +SLAPP1 MISEN KEPEC6
File this flight plan on PilotEdge
Remarks:
Altitude:
(Current/Filed)
25,000ft
Speed:
(Current/Filed)
280kts
Departed: 18-May-20 09:50 AM
Arrived: 18-May-20 10:49 AM
Distance/Time
Traveled:
193nm/0:58
Distance/Time
To Go:
Arrived

Flight Plot

Page will automatically refresh every two minutes.


Map Options




Map Legend


Flown Route
Filed Route
Departure Airport
Arrival Airport
Navaid (VOR, NDB)
Fix

Horizontal Profiles

Position Reports

Time Latitude Longitude Heading Altitude Ground
Speed
18-May-20 09:35 34.200264 -118.362791 220 727ft 0kts
18-May-20 09:36 34.200264 -118.362791 220 727ft 0kts
18-May-20 09:37 34.200264 -118.362791 220 727ft 0kts
18-May-20 09:38 34.200264 -118.362791 220 727ft 0kts
18-May-20 09:39 34.200264 -118.362791 220 727ft 0kts
18-May-20 09:40 34.200264 -118.362791 220 727ft 0kts
18-May-20 09:41 34.200264 -118.362791 220 727ft 0kts
18-May-20 09:42 34.200264 -118.362791 220 727ft 0kts
18-May-20 09:43 34.200105 -118.363906 268 727ft 6kts
18-May-20 09:44 34.199241 -118.365874 201 726ft 7kts
18-May-20 09:45 34.199085 -118.368717 246 728ft 9kts
18-May-20 09:46 34.198820 -118.368985 198 727ft 0kts
18-May-20 09:47 34.198781 -118.368998 193 727ft 2kts
18-May-20 09:48 34.197915 -118.368710 92 726ft 0kts
18-May-20 09:49 34.194355 -118.351328 140 1564ft 133kts
18-May-20 09:50 34.155977 -118.378060 222 3661ft 190kts
18-May-20 09:51 34.125762 -118.432270 260 4028ft 210kts
18-May-20 09:52 34.160408 -118.461155 352 6148ft 173kts
18-May-20 09:53 34.214298 -118.470299 351 8123ft 226kts
18-May-20 09:54 34.270525 -118.464665 29 10071ft 225kts
18-May-20 09:55 34.325630 -118.425830 25 12490ft 239kts
18-May-20 09:56 34.383757 -118.386296 25 13288ft 238kts
18-May-20 09:57 34.441809 -118.346772 25 15248ft 250kts
18-May-20 09:58 34.499377 -118.296166 37 17245ft 263kts
18-May-20 09:59 34.556557 -118.239066 37 19229ft 274kts
18-May-20 10:00 34.616337 -118.179149 37 20974ft 283kts
18-May-20 10:01 34.666954 -118.107728 79 22496ft 287kts
18-May-20 10:02 34.684742 -118.012537 84 24008ft 292kts
18-May-20 10:03 34.695025 -117.915211 93 24994ft 303kts
18-May-20 10:05 34.701604 -117.807382 92 24989ft 316kts
18-May-20 10:06 34.706674 -117.704589 94 24998ft 295kts
18-May-20 10:07 34.710830 -117.597547 93 25014ft 315kts
18-May-20 10:08 34.717501 -117.497476 76 25019ft 305kts
18-May-20 10:09 34.743278 -117.399376 76 25016ft 303kts
18-May-20 10:10 34.769275 -117.301447 77 25006ft 303kts
18-May-20 10:11 34.795180 -117.203524 77 25000ft 304kts
18-May-20 10:12 34.821010 -117.105530 77 24989ft 304kts
18-May-20 10:13 34.846346 -117.009056 77 24982ft 299kts
18-May-20 10:14 34.871314 -116.913671 77 24977ft 292kts
18-May-20 10:15 34.895822 -116.819686 78 24977ft 291kts
18-May-20 10:16 34.921647 -116.725674 62 24975ft 298kts
18-May-20 10:17 34.960676 -116.655530 59 24979ft 302kts
18-May-20 10:18 35.008612 -116.570554 59 24981ft 305kts
18-May-20 10:19 35.056672 -116.485197 60 24208ft 302kts
18-May-20 10:20 35.104174 -116.402052 51 23976ft 302kts
18-May-20 10:21 35.163856 -116.326952 49 21528ft 310kts
18-May-20 10:22 35.222729 -116.253136 49 18632ft 295kts
18-May-20 10:22 35.268897 -116.195142 49 16521ft 278kts
18-May-20 10:24 35.329847 -116.118412 49 13581ft 263kts
18-May-20 10:24 35.371854 -116.065427 49 13045ft 263kts
18-May-20 10:25 35.424373 -115.999079 49 13045ft 273kts
18-May-20 10:26 35.477455 -115.931887 49 13045ft 275kts
18-May-20 10:27 35.530933 -115.864052 49 13042ft 275kts
18-May-20 10:28 35.584450 -115.796034 49 13038ft 276kts
18-May-20 10:29 35.637855 -115.728012 49 13033ft 276kts
18-May-20 10:30 35.691449 -115.659596 49 13029ft 286kts
18-May-20 10:31 35.753540 -115.584060 31 13028ft 336kts
18-May-20 10:32 35.841203 -115.570822 1 13030ft 313kts
18-May-20 10:33 35.928528 -115.565934 0 13018ft 313kts
18-May-20 10:34 35.989618 -115.505314 76 12104ft 299kts
18-May-20 10:35 36.019519 -115.411688 71 11004ft 291kts
18-May-20 10:36 36.027245 -115.318900 101 9178ft 254kts
18-May-20 10:37 36.020847 -115.234445 101 9019ft 249kts
18-May-20 10:38 36.014954 -115.149525 100 8643ft 252kts
18-May-20 10:39 36.009394 -115.065463 99 7753ft 234kts
18-May-20 10:40 36.007664 -114.992363 89 5914ft 206kts
18-May-20 10:41 36.046963 -114.957526 2 3937ft 209kts
18-May-20 10:42 36.079308 -114.988823 257 2868ft 140kts
18-May-20 10:43 36.073706 -115.026849 261 2506ft 103kts
18-May-20 10:44 36.074140 -115.062686 258 2648ft 97kts
18-May-20 10:45 36.073849 -115.099072 261 2538ft 105kts
18-May-20 10:46 36.073608 -115.129928 259 2053ft 62kts
18-May-20 10:47 36.073597 -115.142134 273 2089ft 45kts
18-May-20 10:48 36.074613 -115.145691 294 2099ft 19kts
18-May-20 10:49 36.075015 -115.147865 268 2105ft 18kts
18-May-20 10:50 36.075016 -115.153140 271 2126ft 11kts
18-May-20 10:51 36.075005 -115.160639 268 2156ft 24kts
18-May-20 10:52 36.074897 -115.166866 246 2174ft 16kts
18-May-20 10:53 36.076451 -115.170867 355 2182ft 20kts
18-May-20 10:54 36.080850 -115.171049 95 2170ft 0kts

Navigation Log

Ident Type
Flight plan parsing failed, navigation log unavailable